createdAt,value
2024-03-29T00:08:53.861Z,72.07
2024-03-29T00:23:53.707Z,71.71
2024-03-29T00:38:53.536Z,74.33
2024-03-29T00:53:53.389Z,75.94
2024-03-29T01:08:53.239Z,77.42
2024-03-29T01:23:53.252Z,78.08
2024-03-29T01:38:53.050Z,77.63
2024-03-29T01:53:52.758Z,77.86
2024-03-29T02:08:52.626Z,77.94
2024-03-29T02:23:52.449Z,78.60
2024-03-29T02:38:52.274Z,78.63
2024-03-29T02:53:52.401Z,79.22
2024-03-29T03:08:51.975Z,79.23
2024-03-29T03:23:51.819Z,79.59
2024-03-29T03:38:51.645Z,79.03
2024-03-29T03:53:51.506Z,78.29
2024-03-29T04:08:51.360Z,78.50
2024-03-29T04:23:51.404Z,77.43
2024-03-29T04:38:51.031Z,77.43
2024-03-29T04:53:50.882Z,78.68
2024-03-29T05:08:50.725Z,79.14
2024-03-29T05:23:50.553Z,78.30
2024-03-29T05:38:50.541Z,77.90
2024-03-29T05:53:50.233Z,75.40
2024-03-29T06:08:50.062Z,74.42
2024-03-29T06:23:49.933Z,71.21
2024-03-29T06:38:49.734Z,68.57
2024-03-29T06:53:49.592Z,67.31
2024-03-29T07:08:49.627Z,64.68
2024-03-29T07:23:49.282Z,60.88
2024-03-29T07:38:49.108Z,58.65
2024-03-29T07:53:48.964Z,54.84
2024-03-29T08:08:48.763Z,55.20
2024-03-29T08:23:48.635Z,45.72
2024-03-29T08:38:48.658Z,44.27
2024-03-29T08:53:48.296Z,46.82
2024-03-29T09:08:48.159Z,49.10
2024-03-29T09:23:47.990Z,49.83
2024-03-29T09:38:47.790Z,50.83
2024-03-29T09:53:47.658Z,50.31
2024-03-29T10:08:47.685Z,51.04
2024-03-29T10:23:49.684Z,51.89
2024-03-29T10:38:47.302Z,51.32
2024-03-29T10:53:49.247Z,51.11
2024-03-29T11:08:46.954Z,50.67
2024-03-29T11:23:47.003Z,50.22
2024-03-29T11:38:46.643Z,52.10
2024-03-29T11:53:46.925Z,53.71
2024-03-29T12:08:46.356Z,51.58
2024-03-29T12:23:46.174Z,54.77
2024-03-29T12:38:45.988Z,56.29
2024-03-29T12:53:46.051Z,55.99
2024-03-29T13:08:45.673Z,50.83
2024-03-29T13:23:45.542Z,43.33
2024-03-29T13:38:55.404Z,47.35
2024-03-29T13:53:46.225Z,47.07
2024-03-29T14:08:45.228Z,48.97
2024-03-29T14:23:44.922Z,39.63
2024-03-29T14:38:44.704Z,34.75
2024-03-29T14:53:44.566Z,33.61
2024-03-29T15:08:44.374Z,32.78
2024-03-29T15:23:44.539Z,33.72
2024-03-29T15:38:44.055Z,31.96
2024-03-29T15:53:45.088Z,32.13
2024-03-29T16:08:43.734Z,30.95
2024-03-29T16:23:43.792Z,31.40
2024-03-29T16:38:43.434Z,32.85
2024-03-29T16:53:45.295Z,34.03
2024-03-29T17:08:43.091Z,34.67
2024-03-29T17:23:42.941Z,35.27
2024-03-29T17:38:42.778Z,37.24
2024-03-29T17:53:42.811Z,37.65
2024-03-29T18:08:42.447Z,38.26
2024-03-29T18:23:42.328Z,38.30
2024-03-29T18:38:42.118Z,36.84
2024-03-29T18:53:42.025Z,37.88
2024-03-29T19:08:41.806Z,37.29
2024-03-29T19:23:41.854Z,36.68
2024-03-29T19:38:41.492Z,36.82
2024-03-29T19:53:41.367Z,36.47
2024-03-29T20:08:41.164Z,37.73
2024-03-29T20:23:40.996Z,38.04
2024-03-29T20:38:40.863Z,38.21
2024-03-29T20:53:40.854Z,38.32
2024-03-29T21:08:40.536Z,37.26
2024-03-29T21:23:40.392Z,36.68
2024-03-29T21:38:40.222Z,38.74
2024-03-29T21:53:40.265Z,39.82
2024-03-29T22:08:39.880Z,38.80
2024-03-29T22:23:39.797Z,38.16
2024-03-29T22:38:39.516Z,37.23
2024-03-29T22:53:39.390Z,37.58
2024-03-29T23:08:39.222Z,38.14
2024-03-29T23:23:39.273Z,42.76
2024-03-29T23:38:38.901Z,45.75
2024-03-29T23:53:38.789Z,46.61
